sensor_id;sensor_type;location;lat;lon;timestamp;P1;durP1;ratioP1;P2;durP2;ratioP2
75971;SDS011;64651;47.540;19.088;2023-02-11T00:04:19;58.15;;;22.20;;
75971;SDS011;64651;47.540;19.088;2023-02-11T00:09:21;52.37;;;19.53;;
75971;SDS011;64651;47.540;19.088;2023-02-11T00:14:24;52.00;;;19.48;;
75971;SDS011;64651;47.540;19.088;2023-02-11T00:19:26;48.28;;;18.60;;
75971;SDS011;64651;47.540;19.088;2023-02-11T00:24:28;50.20;;;18.33;;
75971;SDS011;64651;47.540;19.088;2023-02-11T00:29:30;48.92;;;17.62;;
75971;SDS011;64651;47.540;19.088;2023-02-11T00:34:33;56.97;;;19.83;;
75971;SDS011;64651;47.540;19.088;2023-02-11T00:39:36;57.88;;;18.62;;
75971;SDS011;64651;47.540;19.088;2023-02-11T00:44:38;46.90;;;18.17;;
75971;SDS011;64651;47.540;19.088;2023-02-11T00:49:40;52.90;;;17.98;;
75971;SDS011;64651;47.540;19.088;2023-02-11T00:54:42;51.47;;;18.70;;
75971;SDS011;64651;47.540;19.088;2023-02-11T00:59:45;52.30;;;19.17;;
75971;SDS011;64651;47.540;19.088;2023-02-11T01:04:47;52.55;;;18.80;;
75971;SDS011;64651;47.540;19.088;2023-02-11T01:09:49;50.60;;;19.37;;
75971;SDS011;64651;47.540;19.088;2023-02-11T01:14:51;49.20;;;17.95;;
75971;SDS011;64651;47.540;19.088;2023-02-11T01:19:53;49.88;;;18.30;;
75971;SDS011;64651;47.540;19.088;2023-02-11T01:24:55;53.03;;;19.60;;
75971;SDS011;64651;47.540;19.088;2023-02-11T01:29:57;54.88;;;19.87;;
75971;SDS011;64651;47.540;19.088;2023-02-11T01:35:00;58.47;;;20.05;;
75971;SDS011;64651;47.540;19.088;2023-02-11T01:40:10;54.80;;;20.00;;
75971;SDS011;64651;47.540;19.088;2023-02-11T01:51:04;53.03;;;20.13;;
75971;SDS011;64651;47.540;19.088;2023-02-11T01:56:09;53.03;;;17.92;;
75971;SDS011;64651;47.540;19.088;2023-02-11T02:01:31;51.67;;;19.35;;
75971;SDS011;64651;47.540;19.088;2023-02-11T02:06:49;49.70;;;17.60;;
75971;SDS011;64651;47.540;19.088;2023-02-11T02:11:56;51.53;;;20.33;;
75971;SDS011;64651;47.540;19.088;2023-02-11T02:16:58;57.37;;;20.47;;
75971;SDS011;64651;47.540;19.088;2023-02-11T02:27:43;57.90;;;19.70;;
75971;SDS011;64651;47.540;19.088;2023-02-11T02:38:00;54.35;;;20.05;;
75971;SDS011;64651;47.540;19.088;2023-02-11T02:43:04;59.30;;;20.90;;
75971;SDS011;64651;47.540;19.088;2023-02-11T02:48:23;56.28;;;20.70;;
75971;SDS011;64651;47.540;19.088;2023-02-11T02:59:02;57.17;;;20.23;;
75971;SDS011;64651;47.540;19.088;2023-02-11T03:09:59;54.57;;;21.10;;
75971;SDS011;64651;47.540;19.088;2023-02-11T03:15:08;59.10;;;23.27;;
75971;SDS011;64651;47.540;19.088;2023-02-11T03:20:14;63.75;;;22.75;;
75971;SDS011;64651;47.540;19.088;2023-02-11T03:25:19;70.37;;;23.60;;
75971;SDS011;64651;47.540;19.088;2023-02-11T03:30:25;63.13;;;22.05;;
75971;SDS011;64651;47.540;19.088;2023-02-11T03:35:52;58.60;;;21.47;;
75971;SDS011;64651;47.540;19.088;2023-02-11T03:40:57;56.25;;;22.85;;
75971;SDS011;64651;47.540;19.088;2023-02-11T03:46:02;67.62;;;23.20;;
75971;SDS011;64651;47.540;19.088;2023-02-11T03:51:06;64.97;;;23.85;;
75971;SDS011;64651;47.540;19.088;2023-02-11T03:56:11;62.72;;;23.52;;
75971;SDS011;64651;47.540;19.088;2023-02-11T04:01:18;71.63;;;23.60;;
75971;SDS011;64651;47.540;19.088;2023-02-11T04:06:20;58.80;;;23.23;;
75971;SDS011;64651;47.540;19.088;2023-02-11T04:11:22;67.10;;;24.35;;
75971;SDS011;64651;47.540;19.088;2023-02-11T04:16:24;61.63;;;23.77;;
75971;SDS011;64651;47.540;19.088;2023-02-11T04:21:27;65.45;;;24.55;;
75971;SDS011;64651;47.540;19.088;2023-02-11T04:26:29;63.77;;;24.07;;
75971;SDS011;64651;47.540;19.088;2023-02-11T04:31:31;67.62;;;24.80;;
75971;SDS011;64651;47.540;19.088;2023-02-11T04:36:33;65.03;;;24.42;;
75971;SDS011;64651;47.540;19.088;2023-02-11T04:41:36;69.15;;;25.70;;
75971;SDS011;64651;47.540;19.088;2023-02-11T04:46:38;66.32;;;24.92;;
75971;SDS011;64651;47.540;19.088;2023-02-11T04:51:40;68.17;;;24.67;;
75971;SDS011;64651;47.540;19.088;2023-02-11T04:56:42;66.65;;;24.90;;
75971;SDS011;64651;47.540;19.088;2023-02-11T05:01:45;71.75;;;25.73;;
75971;SDS011;64651;47.540;19.088;2023-02-11T05:06:47;71.97;;;25.58;;
75971;SDS011;64651;47.540;19.088;2023-02-11T05:11:49;68.60;;;23.23;;
75971;SDS011;64651;47.540;19.088;2023-02-11T05:16:51;67.70;;;24.73;;
75971;SDS011;64651;47.540;19.088;2023-02-11T05:21:53;74.22;;;26.20;;
75971;SDS011;64651;47.540;19.088;2023-02-11T05:27:03;76.50;;;26.70;;
75971;SDS011;64651;47.540;19.088;2023-02-11T05:32:06;76.82;;;27.90;;
75971;SDS011;64651;47.540;19.088;2023-02-11T05:37:09;65.93;;;26.52;;
75971;SDS011;64651;47.540;19.088;2023-02-11T05:42:12;71.70;;;27.53;;
75971;SDS011;64651;47.540;19.088;2023-02-11T05:47:15;67.32;;;26.23;;
75971;SDS011;64651;47.540;19.088;2023-02-11T05:52:17;70.53;;;27.42;;
75971;SDS011;64651;47.540;19.088;2023-02-11T05:57:19;74.68;;;26.05;;
75971;SDS011;64651;47.540;19.088;2023-02-11T06:02:21;71.30;;;26.02;;
75971;SDS011;64651;47.540;19.088;2023-02-11T06:07:23;73.57;;;27.83;;
75971;SDS011;64651;47.540;19.088;2023-02-11T06:12:26;77.90;;;26.65;;
75971;SDS011;64651;47.540;19.088;2023-02-11T06:17:28;65.28;;;25.88;;
75971;SDS011;64651;47.540;19.088;2023-02-11T06:22:34;74.20;;;27.20;;
75971;SDS011;64651;47.540;19.088;2023-02-11T06:27:37;76.50;;;27.17;;
75971;SDS011;64651;47.540;19.088;2023-02-11T06:32:39;76.00;;;28.90;;
75971;SDS011;64651;47.540;19.088;2023-02-11T06:37:46;75.03;;;29.05;;
75971;SDS011;64651;47.540;19.088;2023-02-11T06:42:50;74.00;;;28.70;;
75971;SDS011;64651;47.540;19.088;2023-02-11T06:47:52;68.20;;;26.30;;
75971;SDS011;64651;47.540;19.088;2023-02-11T06:52:55;73.05;;;27.95;;
75971;SDS011;64651;47.540;19.088;2023-02-11T06:57:57;68.53;;;25.87;;
75971;SDS011;64651;47.540;19.088;2023-02-11T07:02:59;70.07;;;25.88;;
75971;SDS011;64651;47.540;19.088;2023-02-11T07:08:01;76.65;;;27.20;;
75971;SDS011;64651;47.540;19.088;2023-02-11T07:13:03;74.87;;;28.27;;
75971;SDS011;64651;47.540;19.088;2023-02-11T07:18:05;70.05;;;27.35;;
75971;SDS011;64651;47.540;19.088;2023-02-11T07:23:07;74.43;;;28.13;;
75971;SDS011;64651;47.540;19.088;2023-02-11T07:28:09;75.25;;;29.87;;
75971;SDS011;64651;47.540;19.088;2023-02-11T07:33:12;76.15;;;31.48;;
75971;SDS011;64651;47.540;19.088;2023-02-11T07:38:14;76.20;;;31.15;;
75971;SDS011;64651;47.540;19.088;2023-02-11T07:43:16;68.55;;;28.50;;
75971;SDS011;64651;47.540;19.088;2023-02-11T07:48:18;77.70;;;29.20;;
75971;SDS011;64651;47.540;19.088;2023-02-11T07:53:20;79.40;;;33.33;;
75971;SDS011;64651;47.540;19.088;2023-02-11T07:58:22;75.78;;;31.92;;
75971;SDS011;64651;47.540;19.088;2023-02-11T08:03:25;70.87;;;28.67;;
75971;SDS011;64651;47.540;19.088;2023-02-11T08:08:27;76.00;;;29.52;;
75971;SDS011;64651;47.540;19.088;2023-02-11T08:13:30;64.67;;;28.30;;
75971;SDS011;64651;47.540;19.088;2023-02-11T08:18:32;75.65;;;32.45;;
75971;SDS011;64651;47.540;19.088;2023-02-11T08:23:36;72.95;;;29.92;;
75971;SDS011;64651;47.540;19.088;2023-02-11T08:28:44;72.97;;;29.90;;
75971;SDS011;64651;47.540;19.088;2023-02-11T08:33:48;67.30;;;30.37;;
75971;SDS011;64651;47.540;19.088;2023-02-11T08:38:52;68.23;;;29.17;;
75971;SDS011;64651;47.540;19.088;2023-02-11T08:44:03;60.22;;;27.62;;
75971;SDS011;64651;47.540;19.088;2023-02-11T08:49:05;68.95;;;28.98;;
75971;SDS011;64651;47.540;19.088;2023-02-11T08:54:08;65.10;;;29.27;;
75971;SDS011;64651;47.540;19.088;2023-02-11T08:59:13;69.87;;;31.35;;
75971;SDS011;64651;47.540;19.088;2023-02-11T09:04:16;76.60;;;33.77;;
75971;SDS011;64651;47.540;19.088;2023-02-11T09:09:18;67.35;;;30.73;;
75971;SDS011;64651;47.540;19.088;2023-02-11T09:14:21;65.35;;;31.23;;
75971;SDS011;64651;47.540;19.088;2023-02-11T09:19:24;71.95;;;32.10;;
75971;SDS011;64651;47.540;19.088;2023-02-11T09:24:27;68.60;;;31.23;;
75971;SDS011;64651;47.540;19.088;2023-02-11T09:29:29;45.40;;;17.90;;
75971;SDS011;64651;47.540;19.088;2023-02-11T09:34:31;36.88;;;16.12;;
75971;SDS011;64651;47.540;19.088;2023-02-11T09:39:34;39.10;;;17.37;;
75971;SDS011;64651;47.540;19.088;2023-02-11T09:44:36;45.38;;;18.08;;
75971;SDS011;64651;47.540;19.088;2023-02-11T09:49:42;41.60;;;17.35;;
75971;SDS011;64651;47.540;19.088;2023-02-11T09:54:53;38.97;;;18.30;;
75971;SDS011;64651;47.540;19.088;2023-02-11T09:59:57;40.63;;;17.90;;
75971;SDS011;64651;47.540;19.088;2023-02-11T10:16:03;43.30;;;20.20;;
75971;SDS011;64651;47.540;19.088;2023-02-11T10:26:13;42.47;;;19.70;;
75971;SDS011;64651;47.540;19.088;2023-02-11T10:31:28;40.92;;;18.95;;
75971;SDS011;64651;47.540;19.088;2023-02-11T10:36:40;42.08;;;19.48;;
75971;SDS011;64651;47.540;19.088;2023-02-11T10:41:49;45.50;;;22.20;;
75971;SDS011;64651;47.540;19.088;2023-02-11T10:46:55;41.00;;;21.20;;
75971;SDS011;64651;47.540;19.088;2023-02-11T10:57:20;42.88;;;22.90;;
75971;SDS011;64651;47.540;19.088;2023-02-11T11:02:24;42.22;;;22.70;;
75971;SDS011;64651;47.540;19.088;2023-02-11T11:07:35;39.40;;;20.95;;
75971;SDS011;64651;47.540;19.088;2023-02-11T11:17:46;38.88;;;20.33;;
75971;SDS011;64651;47.540;19.088;2023-02-11T11:23:09;37.33;;;19.30;;
75971;SDS011;64651;47.540;19.088;2023-02-11T11:28:19;41.58;;;20.92;;
75971;SDS011;64651;47.540;19.088;2023-02-11T11:33:26;37.20;;;18.98;;
75971;SDS011;64651;47.540;19.088;2023-02-11T11:38:31;43.40;;;19.47;;
75971;SDS011;64651;47.540;19.088;2023-02-11T11:43:35;42.22;;;20.40;;
75971;SDS011;64651;47.540;19.088;2023-02-11T11:48:39;39.65;;;19.08;;
75971;SDS011;64651;47.540;19.088;2023-02-11T11:53:50;38.83;;;18.15;;
75971;SDS011;64651;47.540;19.088;2023-02-11T11:59:00;34.05;;;15.40;;
75971;SDS011;64651;47.540;19.088;2023-02-11T12:19:53;32.08;;;13.75;;
75971;SDS011;64651;47.540;19.088;2023-02-11T12:41:50;32.13;;;13.30;;
75971;SDS011;64651;47.540;19.088;2023-02-11T12:57:55;30.00;;;12.03;;
75971;SDS011;64651;47.540;19.088;2023-02-11T13:08:34;23.48;;;9.20;;
75971;SDS011;64651;47.540;19.088;2023-02-11T13:18:48;22.10;;;10.07;;
75971;SDS011;64651;47.540;19.088;2023-02-11T13:24:01;25.13;;;10.83;;
75971;SDS011;64651;47.540;19.088;2023-02-11T13:34:22;24.05;;;10.48;;
75971;SDS011;64651;47.540;19.088;2023-02-11T13:39:55;21.12;;;8.70;;
75971;SDS011;64651;47.540;19.088;2023-02-11T13:45:03;23.77;;;8.77;;
75971;SDS011;64651;47.540;19.088;2023-02-11T13:50:20;23.50;;;9.27;;
75971;SDS011;64651;47.540;19.088;2023-02-11T13:55:25;22.48;;;9.07;;
75971;SDS011;64651;47.540;19.088;2023-02-11T14:05:37;24.58;;;8.60;;
75971;SDS011;64651;47.540;19.088;2023-02-11T14:16:08;25.40;;;9.73;;
75971;SDS011;64651;47.540;19.088;2023-02-11T14:31:58;26.48;;;11.20;;
75971;SDS011;64651;47.540;19.088;2023-02-11T14:42:16;25.83;;;11.33;;
75971;SDS011;64651;47.540;19.088;2023-02-11T14:47:28;26.52;;;11.18;;
75971;SDS011;64651;47.540;19.088;2023-02-11T14:52:37;26.00;;;11.45;;
75971;SDS011;64651;47.540;19.088;2023-02-11T14:57:40;27.13;;;11.98;;
75971;SDS011;64651;47.540;19.088;2023-02-11T15:02:45;26.30;;;10.77;;
75971;SDS011;64651;47.540;19.088;2023-02-11T15:07:55;24.13;;;10.40;;
75971;SDS011;64651;47.540;19.088;2023-02-11T15:13:02;25.80;;;10.75;;
75971;SDS011;64651;47.540;19.088;2023-02-11T15:18:06;28.73;;;11.52;;
75971;SDS011;64651;47.540;19.088;2023-02-11T15:23:11;26.85;;;10.95;;
75971;SDS011;64651;47.540;19.088;2023-02-11T15:28:23;28.12;;;11.10;;
75971;SDS011;64651;47.540;19.088;2023-02-11T15:33:30;27.77;;;11.30;;
75971;SDS011;64651;47.540;19.088;2023-02-11T15:38:33;27.23;;;11.30;;
75971;SDS011;64651;47.540;19.088;2023-02-11T15:43:54;28.42;;;10.57;;
75971;SDS011;64651;47.540;19.088;2023-02-11T15:48:56;27.50;;;11.12;;
75971;SDS011;64651;47.540;19.088;2023-02-11T15:54:06;28.15;;;11.52;;
75971;SDS011;64651;47.540;19.088;2023-02-11T16:04:38;27.73;;;12.13;;
75971;SDS011;64651;47.540;19.088;2023-02-11T16:09:55;26.85;;;10.52;;
75971;SDS011;64651;47.540;19.088;2023-02-11T16:15:05;28.85;;;11.48;;
75971;SDS011;64651;47.540;19.088;2023-02-11T16:20:30;33.30;;;12.73;;
75971;SDS011;64651;47.540;19.088;2023-02-11T16:25:35;32.27;;;12.27;;
75971;SDS011;64651;47.540;19.088;2023-02-11T16:30:38;29.20;;;11.70;;
75971;SDS011;64651;47.540;19.088;2023-02-11T16:35:41;28.17;;;10.80;;
75971;SDS011;64651;47.540;19.088;2023-02-11T16:40:48;30.25;;;11.40;;
75971;SDS011;64651;47.540;19.088;2023-02-11T16:45:51;30.02;;;11.80;;
75971;SDS011;64651;47.540;19.088;2023-02-11T16:50:54;31.83;;;11.77;;
75971;SDS011;64651;47.540;19.088;2023-02-11T16:55:56;29.80;;;11.70;;
75971;SDS011;64651;47.540;19.088;2023-02-11T17:00:58;28.87;;;11.73;;
75971;SDS011;64651;47.540;19.088;2023-02-11T17:06:01;30.83;;;11.57;;
75971;SDS011;64651;47.540;19.088;2023-02-11T17:11:06;31.20;;;12.02;;
75971;SDS011;64651;47.540;19.088;2023-02-11T17:16:15;29.97;;;11.50;;
75971;SDS011;64651;47.540;19.088;2023-02-11T17:21:23;28.25;;;11.48;;
75971;SDS011;64651;47.540;19.088;2023-02-11T17:26:30;28.55;;;11.73;;
75971;SDS011;64651;47.540;19.088;2023-02-11T17:31:32;31.12;;;11.93;;
75971;SDS011;64651;47.540;19.088;2023-02-11T17:36:35;35.70;;;15.10;;
75971;SDS011;64651;47.540;19.088;2023-02-11T17:41:38;33.10;;;14.03;;
75971;SDS011;64651;47.540;19.088;2023-02-11T17:46:41;32.88;;;13.02;;
75971;SDS011;64651;47.540;19.088;2023-02-11T17:51:43;31.98;;;13.93;;
75971;SDS011;64651;47.540;19.088;2023-02-11T17:56:46;32.42;;;13.32;;
75971;SDS011;64651;47.540;19.088;2023-02-11T18:01:51;34.55;;;12.88;;
75971;SDS011;64651;47.540;19.088;2023-02-11T18:06:53;33.80;;;13.17;;
75971;SDS011;64651;47.540;19.088;2023-02-11T18:11:55;33.28;;;13.15;;
75971;SDS011;64651;47.540;19.088;2023-02-11T18:16:59;32.50;;;13.65;;
75971;SDS011;64651;47.540;19.088;2023-02-11T18:22:01;35.00;;;13.93;;
75971;SDS011;64651;47.540;19.088;2023-02-11T18:27:05;34.22;;;14.38;;
75971;SDS011;64651;47.540;19.088;2023-02-11T18:32:07;35.13;;;14.80;;
75971;SDS011;64651;47.540;19.088;2023-02-11T18:37:09;33.90;;;14.35;;
75971;SDS011;64651;47.540;19.088;2023-02-11T18:42:14;33.80;;;14.02;;
75971;SDS011;64651;47.540;19.088;2023-02-11T18:47:16;36.28;;;14.70;;
75971;SDS011;64651;47.540;19.088;2023-02-11T18:52:18;31.00;;;13.40;;
75971;SDS011;64651;47.540;19.088;2023-02-11T18:57:20;32.20;;;14.03;;
75971;SDS011;64651;47.540;19.088;2023-02-11T19:02:22;29.63;;;14.15;;
75971;SDS011;64651;47.540;19.088;2023-02-11T19:07:25;38.50;;;14.38;;
75971;SDS011;64651;47.540;19.088;2023-02-11T19:12:27;38.15;;;14.70;;
75971;SDS011;64651;47.540;19.088;2023-02-11T19:17:30;34.97;;;13.85;;
75971;SDS011;64651;47.540;19.088;2023-02-11T19:22:32;35.03;;;14.43;;
75971;SDS011;64651;47.540;19.088;2023-02-11T19:27:34;36.30;;;15.07;;
75971;SDS011;64651;47.540;19.088;2023-02-11T19:32:36;36.22;;;15.35;;
75971;SDS011;64651;47.540;19.088;2023-02-11T19:37:38;33.22;;;14.50;;
75971;SDS011;64651;47.540;19.088;2023-02-11T19:42:41;35.33;;;14.82;;
75971;SDS011;64651;47.540;19.088;2023-02-11T19:47:44;36.90;;;15.83;;
75971;SDS011;64651;47.540;19.088;2023-02-11T19:52:46;34.13;;;14.35;;
75971;SDS011;64651;47.540;19.088;2023-02-11T19:57:48;34.08;;;14.27;;
75971;SDS011;64651;47.540;19.088;2023-02-11T20:02:50;34.10;;;14.50;;
75971;SDS011;64651;47.540;19.088;2023-02-11T20:07:52;33.33;;;14.43;;
75971;SDS011;64651;47.540;19.088;2023-02-11T20:12:55;38.37;;;15.80;;
75971;SDS011;64651;47.540;19.088;2023-02-11T20:17:57;35.65;;;14.20;;
75971;SDS011;64651;47.540;19.088;2023-02-11T20:22:59;34.03;;;13.93;;
75971;SDS011;64651;47.540;19.088;2023-02-11T20:28:01;35.13;;;14.65;;
75971;SDS011;64651;47.540;19.088;2023-02-11T20:33:04;32.78;;;14.32;;
75971;SDS011;64651;47.540;19.088;2023-02-11T20:38:06;31.60;;;13.77;;
75971;SDS011;64651;47.540;19.088;2023-02-11T20:43:08;32.60;;;13.98;;
75971;SDS011;64651;47.540;19.088;2023-02-11T20:48:11;31.45;;;14.18;;
75971;SDS011;64651;47.540;19.088;2023-02-11T20:53:14;33.25;;;13.40;;
75971;SDS011;64651;47.540;19.088;2023-02-11T20:58:16;30.08;;;13.35;;
75971;SDS011;64651;47.540;19.088;2023-02-11T21:03:18;31.43;;;14.37;;
75971;SDS011;64651;47.540;19.088;2023-02-11T21:08:21;29.50;;;12.15;;
75971;SDS011;64651;47.540;19.088;2023-02-11T21:13:23;28.95;;;12.15;;
75971;SDS011;64651;47.540;19.088;2023-02-11T21:18:25;23.35;;;10.57;;
75971;SDS011;64651;47.540;19.088;2023-02-11T21:23:27;28.35;;;12.57;;
75971;SDS011;64651;47.540;19.088;2023-02-11T21:28:30;29.10;;;11.67;;
75971;SDS011;64651;47.540;19.088;2023-02-11T21:33:32;25.37;;;11.25;;
75971;SDS011;64651;47.540;19.088;2023-02-11T21:38:35;25.55;;;11.40;;
75971;SDS011;64651;47.540;19.088;2023-02-11T21:43:37;27.85;;;11.85;;
75971;SDS011;64651;47.540;19.088;2023-02-11T21:48:39;30.00;;;12.45;;
75971;SDS011;64651;47.540;19.088;2023-02-11T21:53:42;25.93;;;10.77;;
75971;SDS011;64651;47.540;19.088;2023-02-11T21:58:44;29.10;;;12.57;;
75971;SDS011;64651;47.540;19.088;2023-02-11T22:03:47;27.80;;;12.20;;
75971;SDS011;64651;47.540;19.088;2023-02-11T22:08:49;26.62;;;12.13;;
75971;SDS011;64651;47.540;19.088;2023-02-11T22:13:53;30.48;;;11.90;;
75971;SDS011;64651;47.540;19.088;2023-02-11T22:18:56;26.87;;;11.50;;
75971;SDS011;64651;47.540;19.088;2023-02-11T22:24:03;27.92;;;11.52;;
75971;SDS011;64651;47.540;19.088;2023-02-11T22:29:07;27.45;;;10.63;;
75971;SDS011;64651;47.540;19.088;2023-02-11T22:34:10;31.98;;;12.63;;
75971;SDS011;64651;47.540;19.088;2023-02-11T22:39:14;28.35;;;11.25;;
75971;SDS011;64651;47.540;19.088;2023-02-11T22:44:18;29.83;;;12.00;;
75971;SDS011;64651;47.540;19.088;2023-02-11T22:49:21;28.75;;;11.48;;
75971;SDS011;64651;47.540;19.088;2023-02-11T22:54:23;27.20;;;11.55;;
75971;SDS011;64651;47.540;19.088;2023-02-11T22:59:25;26.98;;;11.10;;
75971;SDS011;64651;47.540;19.088;2023-02-11T23:04:27;26.85;;;9.98;;
75971;SDS011;64651;47.540;19.088;2023-02-11T23:09:29;26.73;;;10.87;;
75971;SDS011;64651;47.540;19.088;2023-02-11T23:14:32;27.20;;;11.10;;
75971;SDS011;64651;47.540;19.088;2023-02-11T23:19:34;29.58;;;10.68;;
75971;SDS011;64651;47.540;19.088;2023-02-11T23:24:36;26.23;;;10.38;;
75971;SDS011;64651;47.540;19.088;2023-02-11T23:29:38;28.95;;;11.80;;
75971;SDS011;64651;47.540;19.088;2023-02-11T23:34:40;27.63;;;10.83;;
75971;SDS011;64651;47.540;19.088;2023-02-11T23:39:45;29.15;;;10.57;;
75971;SDS011;64651;47.540;19.088;2023-02-11T23:44:47;25.55;;;10.63;;
75971;SDS011;64651;47.540;19.088;2023-02-11T23:49:49;28.25;;;11.07;;
75971;SDS011;64651;47.540;19.088;2023-02-11T23:54:52;29.60;;;10.95;;
75971;SDS011;64651;47.540;19.088;2023-02-11T23:59:54;28.70;;;11.10;;
